Time;durP1;ratioP1;P1;durP2;ratioP2;P2;SDS_P1;SDS_P2;PMS_P1;PMS_P2;Temp;Humidity;BMP_temperature;BMP_pressure;BME280_temperature;BME280_humidity;BME280_pressure;Samples;Min_cycle;Max_cycle;Signal;HPM_P1;HPM_P2
2021/10/05 00:01:12;;;;;;;4.03;1.95;;;;;;;;;;5073338;28;20036;-54
2021/10/05 00:03:38;;;;;;;5.93;2.08;;;;;;;;;;5071382;28;20028;-55
2021/10/05 00:06:04;;;;;;;3.05;2.00;;;;;;;;;;5068584;28;20104;-54
2021/10/05 00:08:30;;;;;;;6.10;2.25;;;;;;;;;;5069278;28;20032;-56
2021/10/05 00:10:56;;;;;;;5.00;2.05;;;;;;;;;;5074210;28;20071;-58
2021/10/05 00:13:22;;;;;;;2.40;1.90;;;;;;;;;;5074596;28;20070;-57
2021/10/05 00:15:49;;;;;;;4.82;2.92;;;;;;;;;;5074082;28;20032;-57
2021/10/05 00:18:15;;;;;;;5.05;2.50;;;;;;;;;;5070545;28;20041;-57
2021/10/05 00:20:41;;;;;;;4.32;2.25;;;;;;;;;;5071573;28;20453;-55
2021/10/05 00:23:07;;;;;;;4.63;2.05;;;;;;;;;;5071075;28;20147;-54
2021/10/05 00:25:33;;;;;;;3.08;1.75;;;;;;;;;;5070078;28;20397;-55
2021/10/05 00:27:59;;;;;;;2.25;1.50;;;;;;;;;;5073658;28;20042;-56
2021/10/05 00:30:25;;;;;;;3.13;1.80;;;;;;;;;;5073924;28;20157;-55
2021/10/05 00:32:52;;;;;;;3.30;2.17;;;;;;;;;;5074411;28;20480;-57
2021/10/05 00:35:18;;;;;;;7.00;2.20;;;;;;;;;;5070900;28;20086;-53
2021/10/05 00:37:44;;;;;;;3.28;1.83;;;;;;;;;;5070697;28;20024;-56
2021/10/05 00:40:10;;;;;;;3.47;2.28;;;;;;;;;;5073501;28;20024;-55
2021/10/05 00:42:36;;;;;;;4.78;1.98;;;;;;;;;;5071471;28;20095;-56
2021/10/05 00:45:02;;;;;;;3.47;2.20;;;;;;;;;;5072387;28;20074;-57
2021/10/05 00:47:28;;;;;;;4.90;2.30;;;;;;;;;;5071198;28;20037;-54
2021/10/05 00:49:54;;;;;;;4.97;2.25;;;;;;;;;;5070586;28;20694;-52
2021/10/05 00:52:20;;;;;;;3.17;1.73;;;;;;;;;;5073572;28;20040;-56
2021/10/05 00:54:47;;;;;;;2.90;2.10;;;;;;;;;;5073665;28;20033;-57
2021/10/05 00:57:13;;;;;;;3.13;1.70;;;;;;;;;;5073436;28;20028;-56
2021/10/05 00:59:39;;;;;;;4.10;1.75;;;;;;;;;;5073240;28;20112;-56
2021/10/05 01:02:07;;;;;;;3.65;1.63;;;;;;;;;;5074022;28;20035;-54
2021/10/05 01:04:33;;;;;;;2.78;1.60;;;;;;;;;;5069983;28;20108;-55
2021/10/05 01:06:59;;;;;;;3.03;1.77;;;;;;;;;;5072888;28;20034;-53
2021/10/05 01:09:25;;;;;;;2.28;1.65;;;;;;;;;;5070998;28;20036;-55
2021/10/05 01:11:51;;;;;;;2.65;1.63;;;;;;;;;;5069774;28;20566;-54
2021/10/05 01:14:17;;;;;;;3.25;2.25;;;;;;;;;;5072326;28;20025;-52
2021/10/05 01:16:43;;;;;;;5.25;2.03;;;;;;;;;;5067397;28;20035;-52
2021/10/05 01:19:09;;;;;;;4.78;2.05;;;;;;;;;;5071775;28;20048;-57
2021/10/05 01:21:35;;;;;;;3.33;1.88;;;;;;;;;;5072097;28;20044;-53
2021/10/05 01:24:09;;;;;;;4.15;2.15;;;;;;;;;;5072365;28;20048;-54
2021/10/05 01:26:35;;;;;;;5.63;2.85;;;;;;;;;;5070940;28;20545;-52
2021/10/05 01:29:02;;;;;;;4.60;1.55;;;;;;;;;;5071465;28;20089;-54
2021/10/05 01:31:30;;;;;;;5.35;2.03;;;;;;;;;;5070913;28;20089;-55
2021/10/05 01:33:56;;;;;;;3.47;1.92;;;;;;;;;;5072740;28;20035;-52
2021/10/05 01:36:22;;;;;;;4.60;2.03;;;;;;;;;;5071503;28;20178;-52
2021/10/05 01:38:48;;;;;;;3.47;2.08;;;;;;;;;;5070464;28;20021;-51
2021/10/05 01:41:14;;;;;;;3.53;1.52;;;;;;;;;;5071507;28;20515;-56
2021/10/05 01:43:40;;;;;;;5.28;2.15;;;;;;;;;;5071210;28;20033;-51
2021/10/05 01:46:12;;;;;;;3.58;1.67;;;;;;;;;;5071912;28;20349;-52
2021/10/05 01:48:38;;;;;;;6.10;2.13;;;;;;;;;;5072102;28;20040;-52
2021/10/05 01:51:04;;;;;;;3.38;2.00;;;;;;;;;;5071946;28;20029;-51
2021/10/05 01:53:30;;;;;;;4.68;1.98;;;;;;;;;;5070856;28;20024;-54
2021/10/05 01:55:56;;;;;;;3.08;2.13;;;;;;;;;;5069677;28;20681;-53
2021/10/05 01:58:22;;;;;;;3.15;1.95;;;;;;;;;;5067536;28;20027;-53
2021/10/05 02:00:48;;;;;;;3.97;2.30;;;;;;;;;;5071327;28;20457;-51
2021/10/05 02:03:14;;;;;;;3.42;1.98;;;;;;;;;;5074979;28;20042;-51
2021/10/05 02:05:41;;;;;;;6.05;2.03;;;;;;;;;;5071719;28;20029;-51
2021/10/05 02:08:07;;;;;;;2.92;2.10;;;;;;;;;;5071283;28;20758;-50
2021/10/05 02:10:33;;;;;;;3.33;2.35;;;;;;;;;;5068808;28;20036;-52
2021/10/05 02:12:59;;;;;;;3.22;1.63;;;;;;;;;;5071242;28;20105;-51
2021/10/05 02:15:25;;;;;;;3.92;2.15;;;;;;;;;;5071336;28;20099;-52
2021/10/05 02:17:51;;;;;;;4.97;2.30;;;;;;;;;;5071115;28;20108;-55
2021/10/05 02:20:17;;;;;;;5.38;2.08;;;;;;;;;;5071340;28;20112;-56
2021/10/05 02:22:44;;;;;;;5.20;2.10;;;;;;;;;;5071715;28;20039;-54
2021/10/05 02:25:10;;;;;;;5.65;2.08;;;;;;;;;;5067820;28;20120;-56
2021/10/05 02:27:37;;;;;;;3.83;2.13;;;;;;;;;;5065299;28;20498;-53
2021/10/05 02:30:03;;;;;;;3.42;2.25;;;;;;;;;;5071253;28;20456;-53
2021/10/05 02:32:29;;;;;;;4.65;2.13;;;;;;;;;;5071522;28;20016;-56
2021/10/05 02:34:56;;;;;;;3.75;1.92;;;;;;;;;;5076626;28;20048;-54
2021/10/05 02:37:22;;;;;;;3.33;2.20;;;;;;;;;;5071657;28;20040;-52
2021/10/05 02:39:48;;;;;;;4.20;1.88;;;;;;;;;;5069480;28;20047;-54
2021/10/05 02:42:14;;;;;;;3.22;2.10;;;;;;;;;;5071169;28;20040;-52
2021/10/05 02:44:40;;;;;;;3.78;2.50;;;;;;;;;;5075652;28;20112;-53
2021/10/05 02:47:07;;;;;;;3.63;2.45;;;;;;;;;;5075175;28;20112;-52
2021/10/05 02:49:33;;;;;;;3.55;2.22;;;;;;;;;;5073937;28;20379;-52
2021/10/05 02:52:00;;;;;;;6.88;2.47;;;;;;;;;;5072069;28;20373;-52
2021/10/05 02:54:26;;;;;;;3.92;2.13;;;;;;;;;;5071392;28;20032;-52
2021/10/05 02:56:52;;;;;;;4.65;2.30;;;;;;;;;;5068152;28;20082;-54
2021/10/05 02:59:18;;;;;;;5.45;2.20;;;;;;;;;;5072087;28;20059;-54
2021/10/05 03:01:44;;;;;;;4.00;2.45;;;;;;;;;;5076305;28;20381;-53
2021/10/05 03:04:10;;;;;;;4.75;2.08;;;;;;;;;;5074876;28;20500;-54
2021/10/05 03:06:36;;;;;;;3.40;1.88;;;;;;;;;;5074953;28;20037;-55
2021/10/05 03:09:03;;;;;;;6.25;2.60;;;;;;;;;;5071161;28;20028;-51
2021/10/05 03:11:29;;;;;;;4.95;2.00;;;;;;;;;;5071860;28;20445;-54
2021/10/05 03:13:55;;;;;;;3.55;2.20;;;;;;;;;;5074745;28;20021;-51
2021/10/05 03:16:21;;;;;;;4.75;1.95;;;;;;;;;;5074430;28;20054;-53
2021/10/05 03:18:47;;;;;;;4.03;1.90;;;;;;;;;;5074293;28;20365;-54
2021/10/05 03:21:13;;;;;;;5.32;2.25;;;;;;;;;;5074461;28;20035;-55
2021/10/05 03:23:40;;;;;;;3.58;2.00;;;;;;;;;;5065316;28;20060;-52
2021/10/05 03:26:06;;;;;;;3.65;1.70;;;;;;;;;;5069883;28;20036;-52
2021/10/05 03:28:32;;;;;;;5.25;1.63;;;;;;;;;;5073936;28;20062;-51
2021/10/05 03:30:59;;;;;;;5.70;1.95;;;;;;;;;;5074523;28;20115;-52
2021/10/05 03:33:26;;;;;;;5.97;1.90;;;;;;;;;;5075406;28;20432;-53
2021/10/05 03:35:52;;;;;;;3.58;2.05;;;;;;;;;;5072511;28;20039;-53
2021/10/05 03:38:18;;;;;;;2.30;1.45;;;;;;;;;;5074069;28;20103;-51
2021/10/05 03:40:44;;;;;;;3.83;1.80;;;;;;;;;;5074194;28;20116;-54
2021/10/05 03:43:10;;;;;;;2.55;1.55;;;;;;;;;;5074123;28;20082;-52
2021/10/05 03:45:36;;;;;;;2.15;1.58;;;;;;;;;;5073257;28;20107;-55
2021/10/05 03:48:02;;;;;;;2.25;1.40;;;;;;;;;;5068330;28;20070;-54
2021/10/05 03:50:28;;;;;;;1.92;1.40;;;;;;;;;;5067062;28;20032;-53
2021/10/05 03:52:54;;;;;;;4.93;1.58;;;;;;;;;;5067884;28;20051;-52
2021/10/05 03:55:20;;;;;;;4.65;1.30;;;;;;;;;;5069970;28;20024;-52
2021/10/05 03:57:46;;;;;;;4.65;1.30;;;;;;;;;;5065479;28;20086;-54
2021/10/05 04:00:12;;;;;;;1.58;1.13;;;;;;;;;;5073041;28;20043;-52
2021/10/05 04:02:38;;;;;;;1.73;1.15;;;;;;;;;;5072470;28;20666;-54
2021/10/05 04:05:05;;;;;;;2.78;1.50;;;;;;;;;;5071753;28;20044;-53
2021/10/05 04:07:30;;;;;;;3.30;1.45;;;;;;;;;;5071967;28;20036;-52
2021/10/05 04:09:57;;;;;;;3.08;1.10;;;;;;;;;;5071428;28;20537;-54
2021/10/05 04:12:23;;;;;;;5.53;1.00;;;;;;;;;;5072558;28;20023;-54
2021/10/05 04:14:50;;;;;;;5.80;1.10;;;;;;;;;;5068882;28;20028;-53
2021/10/05 04:17:17;;;;;;;2.45;1.23;;;;;;;;;;5073077;28;20146;-53
2021/10/05 04:19:43;;;;;;;3.30;1.15;;;;;;;;;;5068005;28;20464;-53
2021/10/05 04:22:09;;;;;;;4.18;1.25;;;;;;;;;;5070115;28;20060;-52
2021/10/05 04:24:34;;;;;;;2.88;1.30;;;;;;;;;;5071790;28;20029;-51
2021/10/05 04:27:01;;;;;;;6.20;1.23;;;;;;;;;;5062459;28;20082;-53
2021/10/05 04:29:26;;;;;;;2.72;0.88;;;;;;;;;;5063730;28;20050;-54
2021/10/05 04:31:52;;;;;;;4.03;1.00;;;;;;;;;;5080470;28;20832;-51
2021/10/05 04:34:18;;;;;;;3.90;1.10;;;;;;;;;;5075796;28;20033;-51
2021/10/05 04:36:44;;;;;;;2.30;0.90;;;;;;;;;;5072212;28;20025;-55
2021/10/05 04:39:10;;;;;;;2.08;0.98;;;;;;;;;;5070490;28;20028;-56
2021/10/05 04:41:36;;;;;;;3.15;0.93;;;;;;;;;;5065202;28;20037;-52
2021/10/05 04:44:03;;;;;;;1.92;0.80;;;;;;;;;;5072098;28;20699;-51
2021/10/05 04:46:29;;;;;;;2.55;0.73;;;;;;;;;;5063537;28;20158;-55
2021/10/05 04:48:55;;;;;;;1.95;0.73;;;;;;;;;;5066132;28;20037;-56
2021/10/05 04:51:21;;;;;;;1.55;0.80;;;;;;;;;;5072621;28;20376;-55
2021/10/05 04:53:46;;;;;;;1.95;0.75;;;;;;;;;;5071558;28;20032;-52
2021/10/05 04:56:12;;;;;;;3.90;1.15;;;;;;;;;;5055039;28;20547;-55
2021/10/05 04:58:38;;;;;;;0.60;0.60;;;;;;;;;;5070813;28;20016;-54
2021/10/05 05:01:04;;;;;;;1.65;0.90;;;;;;;;;;5075526;28;20107;-53
2021/10/05 05:03:31;;;;;;;2.13;0.57;;;;;;;;;;5068593;28;20024;-55
2021/10/05 05:05:57;;;;;;;1.60;0.73;;;;;;;;;;5070819;28;20034;-52
2021/10/05 05:08:23;;;;;;;3.75;0.95;;;;;;;;;;5072030;28;20457;-53
2021/10/05 05:10:49;;;;;;;2.90;0.57;;;;;;;;;;5072007;28;20035;-56
2021/10/05 05:13:15;;;;;;;3.58;1.13;;;;;;;;;;5071609;28;20468;-57
2021/10/05 05:15:41;;;;;;;3.22;1.20;;;;;;;;;;5073231;28;20024;-56
2021/10/05 05:18:08;;;;;;;4.95;1.27;;;;;;;;;;5071779;28;20496;-56
2021/10/05 05:20:34;;;;;;;4.10;0.90;;;;;;;;;;5072765;28;20024;-53
2021/10/05 05:22:59;;;;;;;5.13;0.90;;;;;;;;;;5069901;28;20093;-54
2021/10/05 05:25:25;;;;;;;2.83;1.02;;;;;;;;;;5072641;28;20035;-52
2021/10/05 05:27:51;;;;;;;2.30;1.00;;;;;;;;;;5070840;28;20029;-55
2021/10/05 05:30:17;;;;;;;2.03;1.23;;;;;;;;;;5070441;28;20032;-55
2021/10/05 05:32:43;;;;;;;3.13;1.13;;;;;;;;;;5070143;28;20048;-53
2021/10/05 05:35:09;;;;;;;3.90;1.20;;;;;;;;;;5070919;28;20070;-53
2021/10/05 05:37:35;;;;;;;3.80;1.17;;;;;;;;;;5070561;28;20055;-53
2021/10/05 05:40:01;;;;;;;4.15;1.42;;;;;;;;;;5067835;28;20024;-55
2021/10/05 05:42:27;;;;;;;3.22;1.60;;;;;;;;;;5071521;28;20400;-55
2021/10/05 05:44:53;;;;;;;2.97;1.45;;;;;;;;;;5061318;28;20040;-51
2021/10/05 05:47:19;;;;;;;2.03;1.20;;;;;;;;;;5071441;28;20404;-55
2021/10/05 05:49:45;;;;;;;5.20;1.80;;;;;;;;;;5069783;28;20039;-52
2021/10/05 05:52:11;;;;;;;3.47;1.55;;;;;;;;;;5071130;28;20028;-54
2021/10/05 05:54:37;;;;;;;2.15;1.48;;;;;;;;;;5071562;28;20020;-51
2021/10/05 05:57:03;;;;;;;3.67;1.50;;;;;;;;;;5070413;28;20017;-52
2021/10/05 05:59:29;;;;;;;2.40;1.42;;;;;;;;;;5071165;28;20100;-52
2021/10/05 06:01:55;;;;;;;4.13;1.73;;;;;;;;;;5071362;28;20103;-51
2021/10/05 06:04:22;;;;;;;4.10;1.70;;;;;;;;;;5070652;28;20027;-52
2021/10/05 06:06:48;;;;;;;4.03;1.70;;;;;;;;;;5064491;28;20052;-55
2021/10/05 06:09:14;;;;;;;2.20;1.60;;;;;;;;;;5070333;28;20064;-53
2021/10/05 06:11:41;;;;;;;4.30;1.33;;;;;;;;;;5069469;28;20028;-53
2021/10/05 06:14:07;;;;;;;3.05;1.77;;;;;;;;;;5070812;28;20047;-54
2021/10/05 06:16:33;;;;;;;4.80;1.83;;;;;;;;;;5071060;28;20379;-55
2021/10/05 06:18:59;;;;;;;3.45;1.38;;;;;;;;;;5071434;28;20119;-56
2021/10/05 06:21:25;;;;;;;4.97;1.40;;;;;;;;;;5073150;28;20036;-56
2021/10/05 06:23:51;;;;;;;2.80;1.65;;;;;;;;;;5068453;28;20392;-54
2021/10/05 06:26:17;;;;;;;5.20;1.60;;;;;;;;;;5069591;28;20040;-52
2021/10/05 06:28:43;;;;;;;4.68;1.75;;;;;;;;;;5071542;28;20032;-53
2021/10/05 06:31:09;;;;;;;3.03;1.90;;;;;;;;;;5069178;28;20094;-56
2021/10/05 06:33:36;;;;;;;5.13;1.85;;;;;;;;;;5071223;28;20058;-54
2021/10/05 06:36:02;;;;;;;3.42;2.05;;;;;;;;;;5062584;28;20032;-53
2021/10/05 06:38:28;;;;;;;3.40;1.73;;;;;;;;;;5070174;28;20024;-51
2021/10/05 06:40:54;;;;;;;3.40;1.67;;;;;;;;;;5070075;28;20043;-51
2021/10/05 06:43:20;;;;;;;3.72;2.03;;;;;;;;;;5070422;28;20546;-52
2021/10/05 06:45:46;;;;;;;7.18;2.25;;;;;;;;;;5067570;28;20036;-56
2021/10/05 06:48:12;;;;;;;4.90;2.20;;;;;;;;;;5054848;28;20029;-54
2021/10/05 06:50:39;;;;;;;3.13;1.63;;;;;;;;;;5069376;28;20044;-52
2021/10/05 06:53:05;;;;;;;4.13;1.65;;;;;;;;;;5074662;28;20017;-54
2021/10/05 06:55:31;;;;;;;5.68;1.90;;;;;;;;;;5068191;28;20052;-52
2021/10/05 06:57:58;;;;;;;6.22;2.25;;;;;;;;;;5075291;28;20036;-51
2021/10/05 07:00:25;;;;;;;4.07;2.17;;;;;;;;;;5071809;28;20079;-52
2021/10/05 07:02:51;;;;;;;5.05;1.98;;;;;;;;;;5071572;28;20479;-55
2021/10/05 07:05:19;;;;;;;6.28;2.50;;;;;;;;;;5071038;28;20844;-54
2021/10/05 07:07:46;;;;;;;5.43;2.83;;;;;;;;;;5068709;28;20064;-54
2021/10/05 07:10:13;;;;;;;4.63;2.30;;;;;;;;;;5071260;28;20120;-55
2021/10/05 07:12:39;;;;;;;4.07;2.75;;;;;;;;;;5071231;28;20515;-55
2021/10/05 07:15:06;;;;;;;4.55;2.80;;;;;;;;;;5059193;28;20029;-54
2021/10/05 07:17:32;;;;;;;4.25;2.35;;;;;;;;;;5069957;28;20101;-54
2021/10/05 07:19:58;;;;;;;4.78;2.45;;;;;;;;;;5070338;28;20136;-55
2021/10/05 07:22:25;;;;;;;5.38;2.90;;;;;;;;;;5071072;28;20020;-53
2021/10/05 07:24:51;;;;;;;6.70;2.58;;;;;;;;;;5067293;28;20025;-52
2021/10/05 07:27:17;;;;;;;5.07;3.08;;;;;;;;;;5071400;28;20426;-54
2021/10/05 07:29:43;;;;;;;6.03;3.05;;;;;;;;;;5072847;28;20025;-54
2021/10/05 07:32:09;;;;;;;4.38;3.05;;;;;;;;;;5074149;28;20028;-51
2021/10/05 07:34:35;;;;;;;6.43;3.05;;;;;;;;;;5075553;28;20023;-53
2021/10/05 07:37:01;;;;;;;8.65;3.47;;;;;;;;;;5074446;28;20028;-56
2021/10/05 07:39:27;;;;;;;7.07;3.00;;;;;;;;;;5074288;28;20108;-53
2021/10/05 07:41:53;;;;;;;5.25;3.25;;;;;;;;;;5074470;28;20020;-53
2021/10/05 07:44:19;;;;;;;7.85;3.78;;;;;;;;;;5074798;28;20477;-56
2021/10/05 07:46:46;;;;;;;3.85;2.88;;;;;;;;;;5074041;28;20029;-51
2021/10/05 07:49:12;;;;;;;5.03;3.42;;;;;;;;;;5074335;28;20409;-53
2021/10/05 07:51:38;;;;;;;9.40;3.88;;;;;;;;;;5073809;28;20039;-53
2021/10/05 07:54:05;;;;;;;6.72;3.35;;;;;;;;;;5074343;28;20513;-54
2021/10/05 07:56:31;;;;;;;6.50;2.85;;;;;;;;;;5070636;28;20028;-56
2021/10/05 07:58:57;;;;;;;8.02;3.80;;;;;;;;;;5074007;28;20020;-53
2021/10/05 08:01:24;;;;;;;8.20;4.28;;;;;;;;;;5068945;28;20071;-51
2021/10/05 08:03:50;;;;;;;7.65;3.70;;;;;;;;;;5067340;28;20052;-53
2021/10/05 08:06:16;;;;;;;6.68;3.45;;;;;;;;;;5073138;28;20067;-52
2021/10/05 08:08:43;;;;;;;6.60;4.28;;;;;;;;;;5072369;28;20368;-53
2021/10/05 08:11:10;;;;;;;10.15;4.38;;;;;;;;;;5073270;28;20021;-52
2021/10/05 08:13:36;;;;;;;5.03;3.22;;;;;;;;;;5071909;28;20203;-55
2021/10/05 08:16:02;;;;;;;6.03;3.75;;;;;;;;;;5072732;28;20070;-54
2021/10/05 08:18:28;;;;;;;6.18;3.85;;;;;;;;;;5070796;28;20044;-53
2021/10/05 08:20:55;;;;;;;10.85;4.70;;;;;;;;;;5062433;28;20056;-55
2021/10/05 08:23:21;;;;;;;10.20;4.53;;;;;;;;;;5073665;28;20024;-51
2021/10/05 08:25:47;;;;;;;7.72;4.45;;;;;;;;;;5071447;28;20048;-52
2021/10/05 08:28:13;;;;;;;6.30;3.80;;;;;;;;;;5073166;28;20107;-52
2021/10/05 08:30:39;;;;;;;7.70;4.47;;;;;;;;;;5073582;28;20472;-55
2021/10/05 08:33:06;;;;;;;10.65;4.85;;;;;;;;;;5068368;28;20498;-53
2021/10/05 08:35:32;;;;;;;5.65;4.13;;;;;;;;;;5067046;28;20488;-51
2021/10/05 08:37:59;;;;;;;7.45;4.55;;;;;;;;;;5071182;28;20100;-54
2021/10/05 08:40:25;;;;;;;7.28;3.53;;;;;;;;;;5073071;28;20071;-52
2021/10/05 08:42:51;;;;;;;8.93;4.35;;;;;;;;;;5070358;28;20071;-56
2021/10/05 08:45:17;;;;;;;9.05;5.20;;;;;;;;;;5072142;28;20036;-54
2021/10/05 08:47:43;;;;;;;7.65;4.53;;;;;;;;;;5063795;28;20028;-54
2021/10/05 08:50:10;;;;;;;7.45;4.45;;;;;;;;;;5069824;28;20056;-56
2021/10/05 08:52:37;;;;;;;9.55;4.50;;;;;;;;;;5071133;28;20108;-52
2021/10/05 08:55:03;;;;;;;7.50;4.55;;;;;;;;;;5070391;28;20031;-54
2021/10/05 08:57:30;;;;;;;9.55;4.43;;;;;;;;;;5072525;28;20031;-51
2021/10/05 08:59:56;;;;;;;14.07;5.18;;;;;;;;;;5071491;28;20151;-53
2021/10/05 09:02:22;;;;;;;9.02;4.95;;;;;;;;;;5068517;28;20027;-57
2021/10/05 09:04:48;;;;;;;8.73;4.70;;;;;;;;;;5065294;28;20477;-53
2021/10/05 09:07:18;;;;;;;9.80;4.88;;;;;;;;;;5071870;28;20027;-55
2021/10/05 09:09:51;;;;;;;7.53;4.90;;;;;;;;;;5063450;28;20025;-52
2021/10/05 09:12:24;;;;;;;10.50;5.45;;;;;;;;;;5068721;28;20039;-54
2021/10/05 09:14:50;;;;;;;10.45;5.78;;;;;;;;;;5072876;28;20016;-52
2021/10/05 09:17:20;;;;;;;13.32;5.20;;;;;;;;;;5071729;28;20037;-52
2021/10/05 09:19:46;;;;;;;9.27;4.95;;;;;;;;;;5065274;28;20082;-52
2021/10/05 09:22:17;;;;;;;8.10;4.80;;;;;;;;;;5069404;28;20115;-54
2021/10/05 09:24:45;;;;;;;9.10;5.63;;;;;;;;;;5068990;28;20037;-54
2021/10/05 09:27:12;;;;;;;9.07;5.07;;;;;;;;;;5068718;28;20028;-54
2021/10/05 09:29:39;;;;;;;8.95;5.18;;;;;;;;;;5072091;28;20082;-53
2021/10/05 09:32:09;;;;;;;8.85;4.03;;;;;;;;;;5068890;28;20073;-52
2021/10/05 09:34:35;;;;;;;8.10;4.70;;;;;;;;;;5076730;28;20052;-52
2021/10/05 09:37:08;;;;;;;9.90;5.18;;;;;;;;;;5068036;28;20025;-53
2021/10/05 09:40:04;;;;;;;7.47;4.20;;;;;;;;;;5076699;28;20025;-54
2021/10/05 09:42:31;;;;;;;7.05;4.57;;;;;;;;;;5053784;28;20033;-54
2021/10/05 09:45:00;;;;;;;7.95;4.43;;;;;;;;;;5071966;28;20036;-53
2021/10/05 09:47:35;;;;;;;8.20;4.75;;;;;;;;;;5076461;28;20020;-52
2021/10/05 09:50:01;;;;;;;9.82;5.30;;;;;;;;;;5075061;28;20046;-53
2021/10/05 09:52:45;;;;;;;7.45;4.50;;;;;;;;;;5062210;28;20083;-56
2021/10/05 09:55:12;;;;;;;7.20;4.65;;;;;;;;;;5071928;28;20028;-55
2021/10/05 09:57:38;;;;;;;10.38;5.13;;;;;;;;;;5071583;28;20048;-57
2021/10/05 10:00:07;;;;;;;8.95;5.50;;;;;;;;;;5073389;28;20035;-52
2021/10/05 10:02:37;;;;;;;9.68;5.53;;;;;;;;;;5072012;28;20047;-55
2021/10/05 10:05:05;;;;;;;7.38;4.75;;;;;;;;;;5072056;28;20519;-53
2021/10/05 10:07:31;;;;;;;9.45;5.43;;;;;;;;;;5071855;28;20079;-53
2021/10/05 10:09:57;;;;;;;10.63;6.20;;;;;;;;;;5071558;28;20115;-52
2021/10/05 10:12:24;;;;;;;9.85;5.47;;;;;;;;;;5071908;28;20103;-54
2021/10/05 10:14:50;;;;;;;9.25;5.00;;;;;;;;;;5071565;28;20405;-52
2021/10/05 10:17:22;;;;;;;9.18;5.50;;;;;;;;;;5065171;28;20056;-56
2021/10/05 10:19:48;;;;;;;10.23;5.27;;;;;;;;;;5071252;28;20075;-52
2021/10/05 10:22:14;;;;;;;7.32;4.93;;;;;;;;;;5071757;28;20623;-53
2021/10/05 10:24:44;;;;;;;8.93;5.22;;;;;;;;;;5069011;28;20082;-56
2021/10/05 10:27:10;;;;;;;12.05;5.97;;;;;;;;;;5068370;28;20095;-53
2021/10/05 10:29:37;;;;;;;11.82;5.60;;;;;;;;;;5064992;28;20523;-55
2021/10/05 10:32:24;;;;;;;9.25;5.45;;;;;;;;;;5071786;28;20127;-52
2021/10/05 10:35:04;;;;;;;9.63;5.53;;;;;;;;;;5071566;28;20741;-55
2021/10/05 10:37:40;;;;;;;9.82;5.93;;;;;;;;;;5067775;28;20035;-54
2021/10/05 10:40:06;;;;;;;8.85;5.70;;;;;;;;;;5071461;28;20067;-51
2021/10/05 10:42:32;;;;;;;9.13;5.65;;;;;;;;;;5071634;28;20429;-53
2021/10/05 10:44:58;;;;;;;7.32;4.57;;;;;;;;;;5071457;28;20480;-56
2021/10/05 10:47:25;;;;;;;11.27;5.88;;;;;;;;;;5071397;28;20028;-51
2021/10/05 10:49:59;;;;;;;9.07;5.63;;;;;;;;;;5069730;28;20024;-52
2021/10/05 10:52:37;;;;;;;9.95;5.80;;;;;;;;;;5071654;28;20038;-54
2021/10/05 10:55:04;;;;;;;9.57;6.15;;;;;;;;;;5071379;28;20048;-52
2021/10/05 10:57:33;;;;;;;9.77;5.43;;;;;;;;;;5071301;28;20025;-56
2021/10/05 11:00:15;;;;;;;10.75;5.93;;;;;;;;;;5071401;28;20021;-53
2021/10/05 11:02:42;;;;;;;13.70;7.60;;;;;;;;;;5071183;28;20021;-53
2021/10/05 11:05:08;;;;;;;12.82;6.43;;;;;;;;;;5075237;28;20085;-51
2021/10/05 11:07:34;;;;;;;10.15;6.13;;;;;;;;;;5075262;28;20025;-52
2021/10/05 11:10:00;;;;;;;15.38;7.28;;;;;;;;;;5074732;28;20027;-52
2021/10/05 11:12:26;;;;;;;13.50;6.78;;;;;;;;;;5074867;28;20125;-53
2021/10/05 11:14:52;;;;;;;13.43;7.25;;;;;;;;;;5066751;28;20032;-51
2021/10/05 11:17:18;;;;;;;17.40;8.23;;;;;;;;;;5073433;28;20504;-53
2021/10/05 11:19:44;;;;;;;11.10;6.65;;;;;;;;;;5071329;28;20047;-51
2021/10/05 11:22:12;;;;;;;14.63;7.50;;;;;;;;;;5077534;28;20029;-51
2021/10/05 11:24:43;;;;;;;14.00;7.72;;;;;;;;;;5072660;28;20029;-53
2021/10/05 11:27:11;;;;;;;15.30;7.60;;;;;;;;;;5074568;28;20119;-52
2021/10/05 11:29:37;;;;;;;11.60;6.97;;;;;;;;;;5074421;28;20518;-51
2021/10/05 11:32:05;;;;;;;15.05;7.97;;;;;;;;;;5077743;28;20089;-52
2021/10/05 11:34:33;;;;;;;14.02;7.85;;;;;;;;;;5074190;28;20407;-55
2021/10/05 11:37:01;;;;;;;14.88;8.52;;;;;;;;;;5074033;28;20025;-55
2021/10/05 11:39:28;;;;;;;15.02;8.73;;;;;;;;;;5074814;28;20024;-51
2021/10/05 11:41:56;;;;;;;14.98;8.60;;;;;;;;;;5074023;28;20020;-53
2021/10/05 11:44:24;;;;;;;14.52;7.93;;;;;;;;;;5073373;28;20112;-55
2021/10/05 11:46:53;;;;;;;13.55;7.30;;;;;;;;;;5072559;28;20024;-51
2021/10/05 11:49:19;;;;;;;14.32;7.95;;;;;;;;;;5073837;28;20036;-54
2021/10/05 11:51:46;;;;;;;13.18;7.60;;;;;;;;;;5072971;28;20422;-54
2021/10/05 11:54:44;;;;;;;18.02;9.00;;;;;;;;;;5072037;28;20032;-54
2021/10/05 11:57:12;;;;;;;12.80;8.10;;;;;;;;;;5034208;28;20491;-55
2021/10/05 11:59:38;;;;;;;12.80;7.53;;;;;;;;;;5072595;28;20037;-55
2021/10/05 12:02:06;;;;;;;13.35;8.00;;;;;;;;;;5072347;28;20024;-54
2021/10/05 12:04:32;;;;;;;14.63;8.95;;;;;;;;;;5076547;28;20376;-54
2021/10/05 12:07:02;;;;;;;15.45;8.90;;;;;;;;;;5072245;28;20082;-57
2021/10/05 12:09:30;;;;;;;16.52;8.48;;;;;;;;;;5073442;28;20050;-56
2021/10/05 12:12:08;;;;;;;17.23;9.32;;;;;;;;;;5070280;28;20036;-52
2021/10/05 12:14:35;;;;;;;14.02;8.20;;;;;;;;;;5072832;28;20029;-53
2021/10/05 12:17:06;;;;;;;19.08;9.13;;;;;;;;;;5073032;28;20368;-52
2021/10/05 12:19:34;;;;;;;15.27;8.13;;;;;;;;;;5071631;28;20511;-52
2021/10/05 12:22:00;;;;;;;14.70;7.47;;;;;;;;;;5072720;28;20028;-54
2021/10/05 12:24:37;;;;;;;15.48;8.13;;;;;;;;;;5076697;28;20039;-51
2021/10/05 12:27:04;;;;;;;16.75;7.75;;;;;;;;;;5072386;28;20024;-54
2021/10/05 12:29:30;;;;;;;12.57;6.95;;;;;;;;;;5073348;28;20099;-52
2021/10/05 12:31:57;;;;;;;15.30;8.05;;;;;;;;;;5077267;28;20033;-51
2021/10/05 12:34:33;;;;;;;15.98;8.88;;;;;;;;;;5072216;28;20032;-53
2021/10/05 12:36:59;;;;;;;12.23;7.53;;;;;;;;;;5072804;28;20027;-53
2021/10/05 12:39:25;;;;;;;13.23;7.72;;;;;;;;;;5072749;28;20410;-51
2021/10/05 12:41:58;;;;;;;14.20;7.97;;;;;;;;;;5070964;28;20037;-54
2021/10/05 12:44:25;;;;;;;12.02;6.45;;;;;;;;;;5071264;28;20060;-51
2021/10/05 12:46:55;;;;;;;12.35;6.55;;;;;;;;;;5076559;28;20108;-52
2021/10/05 12:49:21;;;;;;;11.57;6.55;;;;;;;;;;5072698;28;20345;-55
2021/10/05 12:51:48;;;;;;;10.63;6.20;;;;;;;;;;5072735;28;20020;-52
2021/10/05 12:54:14;;;;;;;9.88;6.47;;;;;;;;;;5070704;28;20036;-51
2021/10/05 12:56:40;;;;;;;11.40;6.15;;;;;;;;;;5072735;28;20472;-51
2021/10/05 12:59:07;;;;;;;8.85;5.30;;;;;;;;;;5071895;28;20033;-53
2021/10/05 13:01:37;;;;;;;10.10;5.88;;;;;;;;;;5072149;28;20698;-51
2021/10/05 13:04:04;;;;;;;11.40;5.30;;;;;;;;;;5071086;28;20121;-53
2021/10/05 13:06:31;;;;;;;8.50;4.47;;;;;;;;;;5073945;28;20476;-53
2021/10/05 13:08:57;;;;;;;7.00;4.13;;;;;;;;;;5071015;28;20045;-53
2021/10/05 13:11:24;;;;;;;5.30;3.28;;;;;;;;;;5069606;28;20032;-52
2021/10/05 13:13:49;;;;;;;4.65;3.10;;;;;;;;;;5069215;28;20059;-52
2021/10/05 13:16:15;;;;;;;4.30;3.17;;;;;;;;;;5060781;28;20032;-57
2021/10/05 13:18:41;;;;;;;4.28;2.83;;;;;;;;;;5055064;28;20049;-55
2021/10/05 13:21:07;;;;;;;3.33;2.13;;;;;;;;;;5070411;28;20043;-55
2021/10/05 13:23:33;;;;;;;2.63;1.70;;;;;;;;;;5070015;28;20107;-56
2021/10/05 13:25:59;;;;;;;2.50;2.00;;;;;;;;;;5068948;28;20872;-53
2021/10/05 13:28:26;;;;;;;2.20;1.67;;;;;;;;;;5070721;28;20032;-56
2021/10/05 13:30:52;;;;;;;2.42;1.67;;;;;;;;;;5070347;28;20028;-53
2021/10/05 13:33:18;;;;;;;2.08;1.52;;;;;;;;;;5067698;28;20025;-54
2021/10/05 13:35:44;;;;;;;2.03;1.30;;;;;;;;;;5071876;28;20020;-54
2021/10/05 13:38:10;;;;;;;2.05;1.30;;;;;;;;;;5071164;28;20047;-53
2021/10/05 13:40:41;;;;;;;2.17;1.30;;;;;;;;;;5071164;28;20111;-51
2021/10/05 13:43:07;;;;;;;2.45;1.33;;;;;;;;;;5068075;28;20033;-55
2021/10/05 13:45:33;;;;;;;1.42;1.25;;;;;;;;;;5070730;28;20608;-54
2021/10/05 13:47:59;;;;;;;2.33;1.33;;;;;;;;;;5065515;28;20111;-52
2021/10/05 13:50:26;;;;;;;1.67;1.08;;;;;;;;;;5071210;28;20078;-51
2021/10/05 13:52:52;;;;;;;1.45;1.05;;;;;;;;;;5068328;28;20031;-52
2021/10/05 13:55:18;;;;;;;1.23;0.80;;;;;;;;;;5071482;28;20354;-51
2021/10/05 13:57:45;;;;;;;1.10;0.70;;;;;;;;;;5069372;28;20099;-54
2021/10/05 14:00:11;;;;;;;1.63;0.80;;;;;;;;;;5071238;28;20036;-55
2021/10/05 14:02:37;;;;;;;1.33;0.70;;;;;;;;;;5069754;28;20029;-51
2021/10/05 14:05:04;;;;;;;1.02;0.80;;;;;;;;;;5070756;28;20110;-55
2021/10/05 14:07:30;;;;;;;1.20;0.75;;;;;;;;;;5070692;28;20593;-51
2021/10/05 14:09:56;;;;;;;0.70;0.57;;;;;;;;;;5062987;28;20392;-51
2021/10/05 14:12:22;;;;;;;1.25;0.60;;;;;;;;;;5069305;28;20445;-55
2021/10/05 14:14:48;;;;;;;1.05;0.63;;;;;;;;;;5068139;28;20028;-53
2021/10/05 14:17:16;;;;;;;0.88;0.70;;;;;;;;;;5071130;28;20103;-54
2021/10/05 14:19:43;;;;;;;1.38;0.80;;;;;;;;;;5070368;28;20103;-55
2021/10/05 14:22:09;;;;;;;0.43;0.40;;;;;;;;;;5067490;28;20021;-52
2021/10/05 14:24:35;;;;;;;0.70;0.40;;;;;;;;;;5070773;28;20029;-53
2021/10/05 14:27:01;;;;;;;0.52;0.38;;;;;;;;;;5069924;28;20028;-55
2021/10/05 14:29:27;;;;;;;4.45;0.55;;;;;;;;;;5069989;28;20035;-53
2021/10/05 14:31:53;;;;;;;0.77;0.50;;;;;;;;;;5069493;28;21430;-53
2021/10/05 14:34:19;;;;;;;1.48;0.80;;;;;;;;;;5070795;28;20016;-53
2021/10/05 14:36:46;;;;;;;0.70;0.50;;;;;;;;;;5069349;28;20103;-52
2021/10/05 14:39:12;;;;;;;0.70;0.60;;;;;;;;;;5072226;28;20029;-52